sensor_id;sensor_type;location;lat;lon;timestamp;pressure;altitude;pressure_sealevel;temperature
21336;BMP180;10826;52.536;13.432;2022-11-03T00:01:43;101617.00;;;15.70
21336;BMP180;10826;52.536;13.432;2022-11-03T00:04:12;101603.00;;;15.60
21336;BMP180;10826;52.536;13.432;2022-11-03T00:06:40;101604.00;;;15.60
21336;BMP180;10826;52.536;13.432;2022-11-03T00:09:10;101615.00;;;15.60
21336;BMP180;10826;52.536;13.432;2022-11-03T00:11:38;101602.00;;;15.50
21336;BMP180;10826;52.536;13.432;2022-11-03T00:14:06;101612.00;;;15.50
21336;BMP180;10826;52.536;13.432;2022-11-03T00:16:32;101602.00;;;15.50
21336;BMP180;10826;52.536;13.432;2022-11-03T00:18:58;101575.00;;;15.50
21336;BMP180;10826;52.536;13.432;2022-11-03T00:21:24;101568.00;;;15.40
21336;BMP180;10826;52.536;13.432;2022-11-03T00:23:50;101595.00;;;15.40
21336;BMP180;10826;52.536;13.432;2022-11-03T00:26:26;101591.00;;;15.40
21336;BMP180;10826;52.536;13.432;2022-11-03T00:28:55;101561.00;;;15.40
21336;BMP180;10826;52.536;13.432;2022-11-03T00:31:28;101592.00;;;15.40
21336;BMP180;10826;52.536;13.432;2022-11-03T00:33:55;101586.00;;;15.30
21336;BMP180;10826;52.536;13.432;2022-11-03T00:36:36;101570.00;;;15.30
21336;BMP180;10826;52.536;13.432;2022-11-03T00:39:04;101600.00;;;15.30
21336;BMP180;10826;52.536;13.432;2022-11-03T00:41:30;101524.00;;;15.30
21336;BMP180;10826;52.536;13.432;2022-11-03T00:43:56;101586.00;;;15.20
21336;BMP180;10826;52.536;13.432;2022-11-03T00:46:24;101573.00;;;15.20
21336;BMP180;10826;52.536;13.432;2022-11-03T00:48:51;101585.00;;;15.20
21336;BMP180;10826;52.536;13.432;2022-11-03T00:53:55;101577.00;;;15.20
21336;BMP180;10826;52.536;13.432;2022-11-03T00:56:34;101564.00;;;15.20
21336;BMP180;10826;52.536;13.432;2022-11-03T00:59:03;101565.00;;;15.10
21336;BMP180;10826;52.536;13.432;2022-11-03T01:01:38;101567.00;;;15.20
21336;BMP180;10826;52.536;13.432;2022-11-03T01:04:08;101565.00;;;15.10
21336;BMP180;10826;52.536;13.432;2022-11-03T01:06:56;101552.00;;;15.10
21336;BMP180;10826;52.536;13.432;2022-11-03T01:12:06;101550.00;;;15.10
21336;BMP180;10826;52.536;13.432;2022-11-03T01:14:43;101537.00;;;15.10
21336;BMP180;10826;52.536;13.432;2022-11-03T01:17:23;101548.00;;;15.00
21336;BMP180;10826;52.536;13.432;2022-11-03T01:19:49;101554.00;;;15.00
21336;BMP180;10826;52.536;13.432;2022-11-03T01:22:16;101555.00;;;15.00
21336;BMP180;10826;52.536;13.432;2022-11-03T01:24:43;101564.00;;;14.90
21336;BMP180;10826;52.536;13.432;2022-11-03T01:27:12;101560.00;;;14.90
21336;BMP180;10826;52.536;13.432;2022-11-03T01:29:39;101566.00;;;14.90
21336;BMP180;10826;52.536;13.432;2022-11-03T01:32:06;101515.00;;;14.80
21336;BMP180;10826;52.536;13.432;2022-11-03T01:34:33;101556.00;;;14.80
21336;BMP180;10826;52.536;13.432;2022-11-03T01:36:59;101560.00;;;14.80
21336;BMP180;10826;52.536;13.432;2022-11-03T01:39:25;101558.00;;;14.80
21336;BMP180;10826;52.536;13.432;2022-11-03T01:41:52;101523.00;;;14.80
21336;BMP180;10826;52.536;13.432;2022-11-03T01:47:11;101543.00;;;14.80
21336;BMP180;10826;52.536;13.432;2022-11-03T01:49:54;101552.00;;;14.80
21336;BMP180;10826;52.536;13.432;2022-11-03T01:52:33;101545.00;;;14.80
21336;BMP180;10826;52.536;13.432;2022-11-03T01:55:08;101549.00;;;14.80
21336;BMP180;10826;52.536;13.432;2022-11-03T01:57:48;101545.00;;;14.80
21336;BMP180;10826;52.536;13.432;2022-11-03T02:00:16;101553.00;;;14.70
21336;BMP180;10826;52.536;13.432;2022-11-03T02:02:43;101547.00;;;14.70
21336;BMP180;10826;52.536;13.432;2022-11-03T02:05:12;101533.00;;;14.70
21336;BMP180;10826;52.536;13.432;2022-11-03T02:07:51;101533.00;;;14.70
21336;BMP180;10826;52.536;13.432;2022-11-03T02:10:19;101527.00;;;14.70
21336;BMP180;10826;52.536;13.432;2022-11-03T02:12:47;101525.00;;;14.70
21336;BMP180;10826;52.536;13.432;2022-11-03T02:15:15;101494.00;;;14.70
21336;BMP180;10826;52.536;13.432;2022-11-03T02:17:46;101519.00;;;14.70
21336;BMP180;10826;52.536;13.432;2022-11-03T02:20:19;101522.00;;;14.70
21336;BMP180;10826;52.536;13.432;2022-11-03T02:23:08;101515.00;;;14.70
21336;BMP180;10826;52.536;13.432;2022-11-03T02:25:57;101477.00;;;14.60
21336;BMP180;10826;52.536;13.432;2022-11-03T02:28:28;101520.00;;;14.60
21336;BMP180;10826;52.536;13.432;2022-11-03T02:31:08;101507.00;;;14.60
21336;BMP180;10826;52.536;13.432;2022-11-03T02:33:48;101496.00;;;14.60
21336;BMP180;10826;52.536;13.432;2022-11-03T02:36:42;101506.00;;;14.60
21336;BMP180;10826;52.536;13.432;2022-11-03T02:39:22;101463.00;;;14.50
21336;BMP180;10826;52.536;13.432;2022-11-03T02:41:52;101471.00;;;14.50
21336;BMP180;10826;52.536;13.432;2022-11-03T02:44:21;101497.00;;;14.50
21336;BMP180;10826;52.536;13.432;2022-11-03T02:46:56;101501.00;;;14.50
21336;BMP180;10826;52.536;13.432;2022-11-03T02:49:26;101495.00;;;14.40
21336;BMP180;10826;52.536;13.432;2022-11-03T02:52:01;101496.00;;;14.50
21336;BMP180;10826;52.536;13.432;2022-11-03T02:54:43;101499.00;;;14.50
21336;BMP180;10826;52.536;13.432;2022-11-03T02:57:18;101499.00;;;14.50
21336;BMP180;10826;52.536;13.432;2022-11-03T03:00:00;101495.00;;;14.50
21336;BMP180;10826;52.536;13.432;2022-11-03T03:02:54;101484.00;;;14.50
21336;BMP180;10826;52.536;13.432;2022-11-03T03:05:28;101494.00;;;14.50
21336;BMP180;10826;52.536;13.432;2022-11-03T03:08:01;101447.00;;;14.50
21336;BMP180;10826;52.536;13.432;2022-11-03T03:10:45;101474.00;;;14.60
21336;BMP180;10826;52.536;13.432;2022-11-03T03:13:16;101467.00;;;14.50
21336;BMP180;10826;52.536;13.432;2022-11-03T03:16:18;101475.00;;;14.50
21336;BMP180;10826;52.536;13.432;2022-11-03T03:19:21;101434.00;;;14.50
21336;BMP180;10826;52.536;13.432;2022-11-03T03:21:52;101424.00;;;14.50
21336;BMP180;10826;52.536;13.432;2022-11-03T03:24:47;101454.00;;;14.50
21336;BMP180;10826;52.536;13.432;2022-11-03T03:27:18;101468.00;;;14.50
21336;BMP180;10826;52.536;13.432;2022-11-03T03:29:54;101475.00;;;14.50
21336;BMP180;10826;52.536;13.432;2022-11-03T03:32:24;101464.00;;;14.50
21336;BMP180;10826;52.536;13.432;2022-11-03T03:34:53;101468.00;;;14.50
21336;BMP180;10826;52.536;13.432;2022-11-03T03:37:23;101470.00;;;14.60
21336;BMP180;10826;52.536;13.432;2022-11-03T03:39:55;101470.00;;;14.60
21336;BMP180;10826;52.536;13.432;2022-11-03T03:42:25;101458.00;;;14.60
21336;BMP180;10826;52.536;13.432;2022-11-03T03:44:54;101457.00;;;14.60
21336;BMP180;10826;52.536;13.432;2022-11-03T03:47:29;101446.00;;;14.60
21336;BMP180;10826;52.536;13.432;2022-11-03T03:49:56;101462.00;;;14.50
21336;BMP180;10826;52.536;13.432;2022-11-03T03:52:23;101459.00;;;14.50
21336;BMP180;10826;52.536;13.432;2022-11-03T03:54:49;101453.00;;;14.50
21336;BMP180;10826;52.536;13.432;2022-11-03T03:57:20;101456.00;;;14.50
21336;BMP180;10826;52.536;13.432;2022-11-03T03:59:47;101453.00;;;14.50
21336;BMP180;10826;52.536;13.432;2022-11-03T04:02:13;101467.00;;;14.40
21336;BMP180;10826;52.536;13.432;2022-11-03T04:04:39;101456.00;;;14.40
21336;BMP180;10826;52.536;13.432;2022-11-03T04:07:06;101452.00;;;14.40
21336;BMP180;10826;52.536;13.432;2022-11-03T04:09:50;101456.00;;;14.40
21336;BMP180;10826;52.536;13.432;2022-11-03T04:12:16;101438.00;;;14.30
21336;BMP180;10826;52.536;13.432;2022-11-03T04:15:01;101449.00;;;14.30
21336;BMP180;10826;52.536;13.432;2022-11-03T04:17:47;101457.00;;;14.30
21336;BMP180;10826;52.536;13.432;2022-11-03T04:20:33;101440.00;;;14.20
21336;BMP180;10826;52.536;13.432;2022-11-03T04:23:18;101447.00;;;14.20
21336;BMP180;10826;52.536;13.432;2022-11-03T04:25:49;101453.00;;;14.20
21336;BMP180;10826;52.536;13.432;2022-11-03T04:28:16;101447.00;;;14.10
21336;BMP180;10826;52.536;13.432;2022-11-03T04:30:42;101444.00;;;14.10
21336;BMP180;10826;52.536;13.432;2022-11-03T04:33:21;101444.00;;;14.10
21336;BMP180;10826;52.536;13.432;2022-11-03T04:35:47;101444.00;;;14.00
21336;BMP180;10826;52.536;13.432;2022-11-03T04:40:55;101435.00;;;14.00
21336;BMP180;10826;52.536;13.432;2022-11-03T04:43:31;101429.00;;;14.00
21336;BMP180;10826;52.536;13.432;2022-11-03T04:45:57;101427.00;;;13.90
21336;BMP180;10826;52.536;13.432;2022-11-03T04:48:26;101435.00;;;14.00
21336;BMP180;10826;52.536;13.432;2022-11-03T04:50:58;101431.00;;;13.90
21336;BMP180;10826;52.536;13.432;2022-11-03T04:53:30;101427.00;;;13.90
21336;BMP180;10826;52.536;13.432;2022-11-03T04:55:57;101388.00;;;13.90
21336;BMP180;10826;52.536;13.432;2022-11-03T04:58:30;101414.00;;;13.90
21336;BMP180;10826;52.536;13.432;2022-11-03T05:00:59;101414.00;;;13.90
21336;BMP180;10826;52.536;13.432;2022-11-03T05:03:32;101406.00;;;13.90
21336;BMP180;10826;52.536;13.432;2022-11-03T05:06:09;101398.00;;;13.90
21336;BMP180;10826;52.536;13.432;2022-11-03T05:08:36;101394.00;;;13.80
21336;BMP180;10826;52.536;13.432;2022-11-03T05:13:57;101401.00;;;13.80
21336;BMP180;10826;52.536;13.432;2022-11-03T05:16:25;101402.00;;;13.80
21336;BMP180;10826;52.536;13.432;2022-11-03T05:18:51;101395.00;;;13.80
21336;BMP180;10826;52.536;13.432;2022-11-03T05:21:24;101364.00;;;13.80
21336;BMP180;10826;52.536;13.432;2022-11-03T05:24:01;101389.00;;;13.80
21336;BMP180;10826;52.536;13.432;2022-11-03T05:26:33;101346.00;;;13.80
21336;BMP180;10826;52.536;13.432;2022-11-03T05:29:15;101375.00;;;13.80
21336;BMP180;10826;52.536;13.432;2022-11-03T05:31:47;101379.00;;;13.60
21336;BMP180;10826;52.536;13.432;2022-11-03T05:37:12;101358.00;;;13.80
21336;BMP180;10826;52.536;13.432;2022-11-03T05:39:44;101351.00;;;13.80
21336;BMP180;10826;52.536;13.432;2022-11-03T05:44:54;101310.00;;;13.70
21336;BMP180;10826;52.536;13.432;2022-11-03T05:47:29;101351.00;;;13.70
21336;BMP180;10826;52.536;13.432;2022-11-03T05:50:19;101356.00;;;13.80
21336;BMP180;10826;52.536;13.432;2022-11-03T05:52:47;101360.00;;;13.70
21336;BMP180;10826;52.536;13.432;2022-11-03T05:55:26;101355.00;;;13.70
21336;BMP180;10826;52.536;13.432;2022-11-03T05:58:05;101356.00;;;13.70
21336;BMP180;10826;52.536;13.432;2022-11-03T06:00:40;101345.00;;;13.70
21336;BMP180;10826;52.536;13.432;2022-11-03T06:03:13;101340.00;;;13.70
21336;BMP180;10826;52.536;13.432;2022-11-03T06:05:41;101364.00;;;13.70
21336;BMP180;10826;52.536;13.432;2022-11-03T06:08:23;101345.00;;;13.70
21336;BMP180;10826;52.536;13.432;2022-11-03T06:10:56;101365.00;;;13.70
21336;BMP180;10826;52.536;13.432;2022-11-03T06:13:33;101365.00;;;13.70
21336;BMP180;10826;52.536;13.432;2022-11-03T06:19:00;101363.00;;;13.70
21336;BMP180;10826;52.536;13.432;2022-11-03T06:21:29;101375.00;;;13.70
21336;BMP180;10826;52.536;13.432;2022-11-03T06:23:55;101371.00;;;13.70
21336;BMP180;10826;52.536;13.432;2022-11-03T06:26:26;101375.00;;;13.70
21336;BMP180;10826;52.536;13.432;2022-11-03T06:28:54;101383.00;;;13.60
21336;BMP180;10826;52.536;13.432;2022-11-03T06:31:28;101376.00;;;13.70
21336;BMP180;10826;52.536;13.432;2022-11-03T06:33:57;101391.00;;;13.70
21336;BMP180;10826;52.536;13.432;2022-11-03T06:36:30;101377.00;;;13.70
21336;BMP180;10826;52.536;13.432;2022-11-03T06:39:19;101380.00;;;13.70
21336;BMP180;10826;52.536;13.432;2022-11-03T06:41:45;101380.00;;;13.70
21336;BMP180;10826;52.536;13.432;2022-11-03T06:44:28;101378.00;;;13.70
21336;BMP180;10826;52.536;13.432;2022-11-03T06:46:59;101367.00;;;13.70
21336;BMP180;10826;52.536;13.432;2022-11-03T06:49:33;101352.00;;;13.70
21336;BMP180;10826;52.536;13.432;2022-11-03T06:57:37;101335.00;;;13.70
21336;BMP180;10826;52.536;13.432;2022-11-03T07:00:21;101345.00;;;13.70
21336;BMP180;10826;52.536;13.432;2022-11-03T07:03:13;101335.00;;;13.80
21336;BMP180;10826;52.536;13.432;2022-11-03T07:05:43;101339.00;;;13.70
21336;BMP180;10826;52.536;13.432;2022-11-03T07:08:24;101326.00;;;13.80
21336;BMP180;10826;52.536;13.432;2022-11-03T07:11:19;101311.00;;;13.80
21336;BMP180;10826;52.536;13.432;2022-11-03T07:13:49;101344.00;;;13.80
21336;BMP180;10826;52.536;13.432;2022-11-03T07:16:29;101334.00;;;13.80
21336;BMP180;10826;52.536;13.432;2022-11-03T07:19:00;101348.00;;;13.80
21336;BMP180;10826;52.536;13.432;2022-11-03T07:21:40;101336.00;;;13.90
21336;BMP180;10826;52.536;13.432;2022-11-03T07:24:39;101319.00;;;13.90
21336;BMP180;10826;52.536;13.432;2022-11-03T07:29:46;101328.00;;;14.00
21336;BMP180;10826;52.536;13.432;2022-11-03T07:32:23;101345.00;;;14.10
21336;BMP180;10826;52.536;13.432;2022-11-03T07:34:52;101309.00;;;14.10
21336;BMP180;10826;52.536;13.432;2022-11-03T07:37:22;101338.00;;;14.20
21336;BMP180;10826;52.536;13.432;2022-11-03T07:39:51;101329.00;;;14.20
21336;BMP180;10826;52.536;13.432;2022-11-03T07:42:24;101348.00;;;14.30
21336;BMP180;10826;52.536;13.432;2022-11-03T07:44:52;101313.00;;;14.30
21336;BMP180;10826;52.536;13.432;2022-11-03T07:47:23;101338.00;;;14.40
21336;BMP180;10826;52.536;13.432;2022-11-03T07:49:55;101312.00;;;14.50
21336;BMP180;10826;52.536;13.432;2022-11-03T07:52:25;101336.00;;;14.60
21336;BMP180;10826;52.536;13.432;2022-11-03T07:54:55;101330.00;;;14.60
21336;BMP180;10826;52.536;13.432;2022-11-03T07:57:27;101303.00;;;14.70
21336;BMP180;10826;52.536;13.432;2022-11-03T08:00:03;101280.00;;;14.80
21336;BMP180;10826;52.536;13.432;2022-11-03T08:02:53;101278.00;;;14.90
21336;BMP180;10826;52.536;13.432;2022-11-03T08:05:22;101311.00;;;14.90
21336;BMP180;10826;52.536;13.432;2022-11-03T08:07:48;101298.00;;;14.90
21336;BMP180;10826;52.536;13.432;2022-11-03T08:10:14;101303.00;;;15.00
21336;BMP180;10826;52.536;13.432;2022-11-03T08:12:40;101298.00;;;15.10
21336;BMP180;10826;52.536;13.432;2022-11-03T08:15:06;101286.00;;;15.10
21336;BMP180;10826;52.536;13.432;2022-11-03T08:17:32;101273.00;;;15.10
21336;BMP180;10826;52.536;13.432;2022-11-03T08:19:58;101263.00;;;15.20
21336;BMP180;10826;52.536;13.432;2022-11-03T08:22:24;101234.00;;;15.20
21336;BMP180;10826;52.536;13.432;2022-11-03T08:24:51;101217.00;;;15.20
21336;BMP180;10826;52.536;13.432;2022-11-03T08:27:17;101259.00;;;15.30
21336;BMP180;10826;52.536;13.432;2022-11-03T08:29:44;101272.00;;;15.30
21336;BMP180;10826;52.536;13.432;2022-11-03T08:32:09;101274.00;;;15.30
21336;BMP180;10826;52.536;13.432;2022-11-03T08:34:35;101273.00;;;15.40
21336;BMP180;10826;52.536;13.432;2022-11-03T08:37:02;101269.00;;;15.40
21336;BMP180;10826;52.536;13.432;2022-11-03T08:39:28;101228.00;;;15.50
21336;BMP180;10826;52.536;13.432;2022-11-03T08:41:55;101256.00;;;15.50
21336;BMP180;10826;52.536;13.432;2022-11-03T08:44:21;101267.00;;;15.60
21336;BMP180;10826;52.536;13.432;2022-11-03T08:46:47;101261.00;;;15.60
21336;BMP180;10826;52.536;13.432;2022-11-03T08:49:13;101249.00;;;15.60
21336;BMP180;10826;52.536;13.432;2022-11-03T08:51:39;101247.00;;;15.70
21336;BMP180;10826;52.536;13.432;2022-11-03T08:54:05;101238.00;;;15.70
21336;BMP180;10826;52.536;13.432;2022-11-03T08:56:31;101236.00;;;15.70
21336;BMP180;10826;52.536;13.432;2022-11-03T08:58:57;101223.00;;;15.80
21336;BMP180;10826;52.536;13.432;2022-11-03T09:01:23;101226.00;;;15.80
21336;BMP180;10826;52.536;13.432;2022-11-03T09:03:49;101164.00;;;15.80
21336;BMP180;10826;52.536;13.432;2022-11-03T09:06:15;101214.00;;;15.90
21336;BMP180;10826;52.536;13.432;2022-11-03T09:08:40;101224.00;;;15.90
21336;BMP180;10826;52.536;13.432;2022-11-03T09:11:06;101214.00;;;16.00
21336;BMP180;10826;52.536;13.432;2022-11-03T09:13:32;101224.00;;;16.00
21336;BMP180;10826;52.536;13.432;2022-11-03T09:15:58;101205.00;;;16.10
21336;BMP180;10826;52.536;13.432;2022-11-03T09:18:24;101188.00;;;16.10
21336;BMP180;10826;52.536;13.432;2022-11-03T09:20:50;101202.00;;;16.20
21336;BMP180;10826;52.536;13.432;2022-11-03T09:23:16;101198.00;;;16.20
21336;BMP180;10826;52.536;13.432;2022-11-03T09:25:42;101204.00;;;16.30
21336;BMP180;10826;52.536;13.432;2022-11-03T09:28:08;101186.00;;;16.30
21336;BMP180;10826;52.536;13.432;2022-11-03T09:30:33;101194.00;;;16.40
21336;BMP180;10826;52.536;13.432;2022-11-03T09:32:59;101192.00;;;16.40
21336;BMP180;10826;52.536;13.432;2022-11-03T09:35:25;101180.00;;;16.50
21336;BMP180;10826;52.536;13.432;2022-11-03T09:37:52;101148.00;;;16.50
21336;BMP180;10826;52.536;13.432;2022-11-03T09:40:18;101182.00;;;16.60
21336;BMP180;10826;52.536;13.432;2022-11-03T09:42:46;101128.00;;;16.50
21336;BMP180;10826;52.536;13.432;2022-11-03T09:45:12;101164.00;;;16.70
21336;BMP180;10826;52.536;13.432;2022-11-03T09:47:43;101163.00;;;16.80
21336;BMP180;10826;52.536;13.432;2022-11-03T09:50:17;101161.00;;;16.90
21336;BMP180;10826;52.536;13.432;2022-11-03T09:52:45;101161.00;;;16.90
21336;BMP180;10826;52.536;13.432;2022-11-03T09:55:19;101164.00;;;17.00
21336;BMP180;10826;52.536;13.432;2022-11-03T09:57:46;101154.00;;;17.00
21336;BMP180;10826;52.536;13.432;2022-11-03T10:00:19;101164.00;;;17.10
21336;BMP180;10826;52.536;13.432;2022-11-03T10:02:47;101129.00;;;17.10
21336;BMP180;10826;52.536;13.432;2022-11-03T10:05:22;101113.00;;;17.20
21336;BMP180;10826;52.536;13.432;2022-11-03T10:07:50;101092.00;;;17.30
21336;BMP180;10826;52.536;13.432;2022-11-03T10:10:40;101099.00;;;17.40
21336;BMP180;10826;52.536;13.432;2022-11-03T10:13:06;101127.00;;;17.40
21336;BMP180;10826;52.536;13.432;2022-11-03T10:15:38;101119.00;;;17.50
21336;BMP180;10826;52.536;13.432;2022-11-03T10:18:06;101114.00;;;17.50
21336;BMP180;10826;52.536;13.432;2022-11-03T10:20:32;101111.00;;;17.60
21336;BMP180;10826;52.536;13.432;2022-11-03T10:22:59;101106.00;;;17.70
21336;BMP180;10826;52.536;13.432;2022-11-03T10:25:37;101102.00;;;17.80
21336;BMP180;10826;52.536;13.432;2022-11-03T10:31:07;101107.00;;;18.00
21336;BMP180;10826;52.536;13.432;2022-11-03T10:33:53;101112.00;;;18.00
21336;BMP180;10826;52.536;13.432;2022-11-03T10:36:24;101070.00;;;18.10
21336;BMP180;10826;52.536;13.432;2022-11-03T10:38:50;101081.00;;;18.10
21336;BMP180;10826;52.536;13.432;2022-11-03T10:41:29;101085.00;;;18.20
21336;BMP180;10826;52.536;13.432;2022-11-03T10:46:38;101052.00;;;18.30
21336;BMP180;10826;52.536;13.432;2022-11-03T10:49:14;101077.00;;;18.40
21336;BMP180;10826;52.536;13.432;2022-11-03T10:51:43;101074.00;;;18.50
21336;BMP180;10826;52.536;13.432;2022-11-03T10:54:16;101068.00;;;18.50
21336;BMP180;10826;52.536;13.432;2022-11-03T10:56:44;101052.00;;;18.60
21336;BMP180;10826;52.536;13.432;2022-11-03T10:59:25;101064.00;;;18.70
21336;BMP180;10826;52.536;13.432;2022-11-03T11:01:59;101053.00;;;18.70
21336;BMP180;10826;52.536;13.432;2022-11-03T11:04:26;101064.00;;;18.80
21336;BMP180;10826;52.536;13.432;2022-11-03T11:06:52;101054.00;;;18.90
21336;BMP180;10826;52.536;13.432;2022-11-03T11:09:24;101035.00;;;19.00
21336;BMP180;10826;52.536;13.432;2022-11-03T11:12:18;101022.00;;;19.10
21336;BMP180;10826;52.536;13.432;2022-11-03T11:14:57;101031.00;;;19.10
21336;BMP180;10826;52.536;13.432;2022-11-03T11:17:47;101011.00;;;19.20
21336;BMP180;10826;52.536;13.432;2022-11-03T11:22:49;101030.00;;;19.20
21336;BMP180;10826;52.536;13.432;2022-11-03T11:25:19;100998.00;;;19.30
21336;BMP180;10826;52.536;13.432;2022-11-03T11:27:53;101018.00;;;19.30
21336;BMP180;10826;52.536;13.432;2022-11-03T11:33:21;100979.00;;;19.40
21336;BMP180;10826;52.536;13.432;2022-11-03T11:38:53;100976.00;;;19.60
21336;BMP180;10826;52.536;13.432;2022-11-03T11:42:10;100989.00;;;19.70
21336;BMP180;10826;52.536;13.432;2022-11-03T11:53:03;100983.00;;;19.80
21336;BMP180;10826;52.536;13.432;2022-11-03T11:55:46;100978.00;;;19.70
21336;BMP180;10826;52.536;13.432;2022-11-03T12:01:28;100925.00;;;19.80
21336;BMP180;10826;52.536;13.432;2022-11-03T12:04:29;100966.00;;;19.80
21336;BMP180;10826;52.536;13.432;2022-11-03T12:06:57;100960.00;;;19.70
21336;BMP180;10826;52.536;13.432;2022-11-03T12:09:27;100948.00;;;19.80
21336;BMP180;10826;52.536;13.432;2022-11-03T12:11:57;100949.00;;;19.80
21336;BMP180;10826;52.536;13.432;2022-11-03T12:14:37;100954.00;;;19.80
21336;BMP180;10826;52.536;13.432;2022-11-03T12:19:52;100942.00;;;19.80
21336;BMP180;10826;52.536;13.432;2022-11-03T12:25:01;100930.00;;;19.80
21336;BMP180;10826;52.536;13.432;2022-11-03T12:29:57;100912.00;;;19.80
21336;BMP180;10826;52.536;13.432;2022-11-03T12:32:24;100916.00;;;19.80
21336;BMP180;10826;52.536;13.432;2022-11-03T12:34:50;100925.00;;;19.80
21336;BMP180;10826;52.536;13.432;2022-11-03T12:37:18;100914.00;;;19.80
21336;BMP180;10826;52.536;13.432;2022-11-03T12:39:44;100919.00;;;19.80
21336;BMP180;10826;52.536;13.432;2022-11-03T12:42:10;100911.00;;;19.80
21336;BMP180;10826;52.536;13.432;2022-11-03T12:44:36;100905.00;;;19.90
21336;BMP180;10826;52.536;13.432;2022-11-03T12:47:02;100917.00;;;19.90
21336;BMP180;10826;52.536;13.432;2022-11-03T12:49:28;100886.00;;;19.90
21336;BMP180;10826;52.536;13.432;2022-11-03T12:51:55;100871.00;;;19.90
21336;BMP180;10826;52.536;13.432;2022-11-03T12:54:21;100869.00;;;19.90
21336;BMP180;10826;52.536;13.432;2022-11-03T12:56:47;100870.00;;;19.90
21336;BMP180;10826;52.536;13.432;2022-11-03T12:59:12;100877.00;;;19.90
21336;BMP180;10826;52.536;13.432;2022-11-03T13:01:38;100906.00;;;19.90
21336;BMP180;10826;52.536;13.432;2022-11-03T13:04:04;100869.00;;;19.90
21336;BMP180;10826;52.536;13.432;2022-11-03T13:06:31;100887.00;;;19.90
21336;BMP180;10826;52.536;13.432;2022-11-03T13:08:57;100858.00;;;20.00
21336;BMP180;10826;52.536;13.432;2022-11-03T13:11:23;100871.00;;;19.90
21336;BMP180;10826;52.536;13.432;2022-11-03T13:14:08;100847.00;;;20.00
21336;BMP180;10826;52.536;13.432;2022-11-03T13:16:34;100861.00;;;20.00
21336;BMP180;10826;52.536;13.432;2022-11-03T13:19:00;100863.00;;;20.10
21336;BMP180;10826;52.536;13.432;2022-11-03T13:21:26;100854.00;;;20.10
21336;BMP180;10826;52.536;13.432;2022-11-03T13:23:52;100847.00;;;20.10
21336;BMP180;10826;52.536;13.432;2022-11-03T13:26:18;100832.00;;;20.10
21336;BMP180;10826;52.536;13.432;2022-11-03T13:28:44;100836.00;;;20.10
21336;BMP180;10826;52.536;13.432;2022-11-03T13:31:10;100843.00;;;20.10
21336;BMP180;10826;52.536;13.432;2022-11-03T13:33:37;100837.00;;;20.00
21336;BMP180;10826;52.536;13.432;2022-11-03T13:36:03;100819.00;;;20.00
21336;BMP180;10826;52.536;13.432;2022-11-03T13:38:29;100816.00;;;20.00
21336;BMP180;10826;52.536;13.432;2022-11-03T13:40:55;100795.00;;;20.00
21336;BMP180;10826;52.536;13.432;2022-11-03T13:43:21;100809.00;;;20.00
21336;BMP180;10826;52.536;13.432;2022-11-03T13:45:47;100799.00;;;20.00
21336;BMP180;10826;52.536;13.432;2022-11-03T13:48:13;100805.00;;;20.00
21336;BMP180;10826;52.536;13.432;2022-11-03T13:50:39;100786.00;;;20.00
21336;BMP180;10826;52.536;13.432;2022-11-03T13:53:05;100781.00;;;20.00
21336;BMP180;10826;52.536;13.432;2022-11-03T13:55:31;100774.00;;;20.00
21336;BMP180;10826;52.536;13.432;2022-11-03T13:57:57;100774.00;;;19.90
21336;BMP180;10826;52.536;13.432;2022-11-03T14:00:23;100768.00;;;19.90
21336;BMP180;10826;52.536;13.432;2022-11-03T14:02:49;100773.00;;;19.90
21336;BMP180;10826;52.536;13.432;2022-11-03T14:05:16;100760.00;;;19.80
21336;BMP180;10826;52.536;13.432;2022-11-03T14:07:42;100769.00;;;19.80
21336;BMP180;10826;52.536;13.432;2022-11-03T14:10:09;100769.00;;;19.70
21336;BMP180;10826;52.536;13.432;2022-11-03T14:12:34;100758.00;;;19.70
21336;BMP180;10826;52.536;13.432;2022-11-03T14:15:08;100756.00;;;19.70
21336;BMP180;10826;52.536;13.432;2022-11-03T14:17:34;100764.00;;;19.60
21336;BMP180;10826;52.536;13.432;2022-11-03T14:20:01;100757.00;;;19.60
21336;BMP180;10826;52.536;13.432;2022-11-03T14:22:28;100758.00;;;19.50
21336;BMP180;10826;52.536;13.432;2022-11-03T14:24:55;100744.00;;;19.50
21336;BMP180;10826;52.536;13.432;2022-11-03T14:27:21;100753.00;;;19.50
21336;BMP180;10826;52.536;13.432;2022-11-03T14:29:47;100745.00;;;19.40
21336;BMP180;10826;52.536;13.432;2022-11-03T14:32:17;100746.00;;;19.40
21336;BMP180;10826;52.536;13.432;2022-11-03T14:34:44;100741.00;;;19.40
21336;BMP180;10826;52.536;13.432;2022-11-03T14:37:11;100741.00;;;19.40
21336;BMP180;10826;52.536;13.432;2022-11-03T14:39:37;100702.00;;;19.30
21336;BMP180;10826;52.536;13.432;2022-11-03T14:42:08;100700.00;;;19.30
21336;BMP180;10826;52.536;13.432;2022-11-03T14:44:38;100700.00;;;19.20
21336;BMP180;10826;52.536;13.432;2022-11-03T14:47:07;100715.00;;;19.10
21336;BMP180;10826;52.536;13.432;2022-11-03T14:49:34;100681.00;;;19.20
21336;BMP180;10826;52.536;13.432;2022-11-03T14:52:02;100701.00;;;19.20
21336;BMP180;10826;52.536;13.432;2022-11-03T14:54:30;100694.00;;;19.10
21336;BMP180;10826;52.536;13.432;2022-11-03T14:56:56;100680.00;;;19.10
21336;BMP180;10826;52.536;13.432;2022-11-03T14:59:24;100652.00;;;19.00
21336;BMP180;10826;52.536;13.432;2022-11-03T15:01:52;100674.00;;;19.00
21336;BMP180;10826;52.536;13.432;2022-11-03T15:04:19;100688.00;;;18.90
21336;BMP180;10826;52.536;13.432;2022-11-03T15:06:47;100675.00;;;18.90
21336;BMP180;10826;52.536;13.432;2022-11-03T15:09:13;100681.00;;;18.90
21336;BMP180;10826;52.536;13.432;2022-11-03T15:11:40;100655.00;;;18.80